Osceola, IA

11:59 AM CST on February 27, 2015 (GMT -0600)
IADOT Osceola (I-35) | Change Station
CLOSE
Current Station
Personal Weather Station
Location: Osceola, IA
Elevation: 1095 ft
Nearby Weather Stations

Elev 1095 ft 41.03 °N, 93.80 °W | Updated 36 minutes ago

Clear
Clear
8 °F
Feels Like -2 °F
N
6
Wind Variable Wind from NNE
Gusts 9.0 mph

Today
High -- | Low -- °F
--% Chance of Precip.
Yesterday
High -- | Low -- °F
Precip. -- in
6:52 AM 6:03 PM
Waxing Gibbous, 70% visible
Pressure 30.62 in
Visibility 10.0 miles
Clouds Clear
Windchill -2 °F
Dew Point -1 °F
Humidity 63%
Rainfall -999.00 in
Snow Depth Not available.
UV 5 out of 12
Pollen .50 out of 12
Air Quality Not available.
Flu Activity Not available.
METAR KI75 271735Z AUTO 00000KT 10SM CLR M13/M19 A3062 RMK AO2 T11351186

More Conditions Fewer Conditions

Pressure 30.62 in
Visibility 10.0 miles
Clouds Clear
Windchill -2 °F
Dew Point -1 °F
Humidity 63%
Rainfall -999.00 in
Snow Depth Not available.
UV 5 out of 12
Pollen .50 out of 12
Air Quality Not available.
Flu Activity Not available.
METAR KI75 271735Z AUTO 00000KT 10SM CLR M13/M19 A3062 RMK AO2 T11351186

More Conditions Fewer Conditions

10-Day Weather Forecast

Almanac

Astronomy

Feb. 27, 2015 Rise Set
Actual Time
Civil Twilight
Nautical Twilight
Astronomical Twilight
Moon
Length of Visible Light
Length of Day
Tomorrow will be .
, % of the Moon is Illuminated

Today's Extremes

State Highs State Lows

Community

WunderPhotos

Upload Photos

1,800,758 photos uploaded!

WunderBlogs® & News

Nearby

Air Quality

  Air Quality AQ Index Pollutant
Not available.

Snow Depth

Station Depth Elevation

Earthquake Activity

City Distance Mag. Time & Date
Minimum magnitude displayed is 2.5.

Coastal Water Temperatures

Place Temperature

Nearby Weather Stations